Time;durP1;ratioP1;P1;durP2;ratioP2;P2;SDS_P1;SDS_P2;PMS_P1;PMS_P2;Temp;Humidity;BMP_temperature;BMP_pressure;BME280_temperature;BME280_humidity;BME280_pressure;Samples;Min_cycle;Max_cycle;Signal;HPM_P1;HPM_P2
2023/06/07 00:01:25;;;;;;;15.43;3.67;;;;;;;22.45;34.69;99667.25;4882096;29;20055;-69
2023/06/07 00:03:51;;;;;;;9.00;3.40;;;;;;;22.43;34.85;99672.06;4882869;29;20047;-69
2023/06/07 00:06:19;;;;;;;9.20;3.50;;;;;;;22.40;34.77;99670.63;4900690;29;20063;-68
2023/06/07 00:08:45;;;;;;;15.75;3.40;;;;;;;22.40;34.75;99667.13;4885524;29;20090;-68
2023/06/07 00:11:12;;;;;;;7.65;3.10;;;;;;;22.37;34.82;99675.72;4900475;29;20085;-69
2023/06/07 00:13:38;;;;;;;9.27;3.40;;;;;;;22.36;34.72;99671.31;4900600;29;20043;-69
2023/06/07 00:16:05;;;;;;;9.30;3.90;;;;;;;22.54;34.79;99671.28;4878794;29;20071;-68
2023/06/07 00:18:31;;;;;;;7.30;3.17;;;;;;;22.42;35.02;99673.94;4863614;29;20083;-68
2023/06/07 00:21:00;;;;;;;6.57;3.40;;;;;;;22.40;34.90;99664.41;4841527;29;20553;-68
2023/06/07 00:23:28;;;;;;;10.18;3.38;;;;;;;22.37;34.98;99671.09;4828858;29;20068;-69
2023/06/07 00:25:54;;;;;;;10.95;3.47;;;;;;;22.38;34.95;99678.19;4796746;29;20525;-68
2023/06/07 00:28:22;;;;;;;8.55;3.50;;;;;;;22.59;35.13;99674.94;4811481;29;20490;-68
2023/06/07 00:30:48;;;;;;;15.35;3.50;;;;;;;22.36;35.09;99671.31;4811497;29;20565;-68
2023/06/07 00:33:14;;;;;;;8.18;3.58;;;;;;;22.37;35.18;99673.81;4855175;29;20059;-68
2023/06/07 00:35:43;;;;;;;6.85;3.78;;;;;;;22.58;34.88;99675.16;4884381;29;20078;-68
2023/06/07 00:38:11;;;;;;;10.23;3.80;;;;;;;22.46;34.95;99675.13;4885218;29;20053;-68
2023/06/07 00:40:37;;;;;;;11.73;3.47;;;;;;;22.28;35.02;99666.28;4900663;29;20148;-68
2023/06/07 00:43:03;;;;;;;9.85;3.65;;;;;;;22.23;35.21;99675.09;4885676;29;20276;-68
2023/06/07 00:45:31;;;;;;;5.50;3.25;;;;;;;22.21;35.33;99674.50;4863461;29;20048;-68
2023/06/07 00:47:57;;;;;;;6.43;3.47;;;;;;;22.20;35.36;99682.84;4826878;29;20071;-68
2023/06/07 00:50:23;;;;;;;15.35;3.83;;;;;;;22.23;35.71;99685.09;4842032;29;20061;-68
2023/06/07 00:52:50;;;;;;;10.40;4.20;;;;;;;22.33;35.74;99686.16;4857303;29;20207;-67
2023/06/07 00:55:16;;;;;;;8.35;3.75;;;;;;;22.27;35.42;99683.56;4857211;29;20471;-69
2023/06/07 00:57:43;;;;;;;9.40;4.50;;;;;;;22.39;35.65;99689.81;4841762;29;20045;-69
2023/06/07 01:00:13;;;;;;;9.20;3.92;;;;;;;22.36;35.95;99684.88;4858599;29;20121;-69
2023/06/07 01:02:40;;;;;;;7.72;3.63;;;;;;;22.35;35.76;99684.06;4860878;29;20057;-69
2023/06/07 01:05:08;;;;;;;15.27;4.65;;;;;;;22.23;35.81;99685.09;4863300;29;20064;-69
2023/06/07 01:07:35;;;;;;;7.72;4.00;;;;;;;22.21;35.57;99679.91;4891146;29;20088;-70
2023/06/07 01:10:05;;;;;;;14.35;4.95;;;;;;;22.37;35.76;99679.22;4898304;29;20495;-69
2023/06/07 01:12:35;;;;;;;16.30;4.65;;;;;;;22.17;36.34;99680.59;4898415;29;20485;-68
2023/06/07 01:15:02;;;;;;;8.32;4.07;;;;;;;22.28;36.23;99688.72;4898079;29;20154;-67
2023/06/07 01:17:31;;;;;;;9.30;3.97;;;;;;;22.09;36.34;99679.06;4936553;29;20074;-67
2023/06/07 01:19:59;;;;;;;10.05;3.60;;;;;;;22.27;36.03;99676.28;4954900;29;20072;-67
2023/06/07 01:22:27;;;;;;;10.95;3.95;;;;;;;22.34;36.11;99682.38;4938781;29;20479;-67
2023/06/07 01:24:57;;;;;;;;;;;;;;;22.68;35.54;99686.25;4973438;28;20053;-67
2023/06/07 01:27:27;;;;;;;11.80;4.22;;;;;;;22.33;35.71;99680.75;4996621;28;19941;-67
2023/06/07 01:29:55;;;;;;;13.07;4.27;;;;;;;22.37;35.74;99681.91;4980504;28;20060;-67
2023/06/07 01:32:21;;;;;;;15.02;4.40;;;;;;;22.32;35.97;99680.97;4996328;28;20104;-68
2023/06/07 01:34:51;;;;;;;10.07;3.92;;;;;;;22.27;35.90;99678.97;4976757;28;20103;-68
2023/06/07 01:37:20;;;;;;;11.15;4.35;;;;;;;22.23;36.07;99679.69;5033571;28;20049;-68
2023/06/07 01:39:47;;;;;;;7.90;3.83;;;;;;;22.29;36.08;99684.16;4960704;28;20070;-68
2023/06/07 01:42:17;;;;;;;11.77;3.78;;;;;;;22.29;36.09;99682.28;4961574;28;20134;-67
2023/06/07 01:44:44;;;;;;;12.68;4.45;;;;;;;22.36;36.00;99679.44;4975033;28;20042;-68
2023/06/07 01:47:12;;;;;;;8.52;3.70;;;;;;;22.13;36.04;99674.81;4974451;28;20046;-67
2023/06/07 01:49:39;;;;;;;11.48;4.30;;;;;;;22.14;35.57;99675.66;4923012;28;20487;-67
2023/06/07 01:52:05;;;;;;;5.95;3.75;;;;;;;22.28;35.55;99685.22;4885447;29;20047;-68
2023/06/07 01:54:31;;;;;;;8.18;3.50;;;;;;;22.23;35.55;99675.09;4900811;29;20063;-68
2023/06/07 01:57:21;;;;;;;10.85;3.80;;;;;;;22.68;35.38;99678.13;4900691;29;20056;-68
2023/06/07 02:00:06;;;;;;;8.30;3.90;;;;;;;22.68;35.36;99676.22;4885196;29;20075;-67
2023/06/07 02:02:59;;;;;;;7.78;3.60;;;;;;;22.71;35.22;99678.47;4904312;29;20043;-67
2023/06/07 02:05:30;;;;;;;10.55;3.50;;;;;;;22.66;35.36;99675.66;4887428;29;20051;-67
2023/06/07 02:08:02;;;;;;;11.65;5.22;;;;;;;22.63;35.02;99675.28;4903201;29;20055;-67
2023/06/07 02:10:33;;;;;;;7.75;3.35;;;;;;;22.56;35.25;99679.97;4903196;28;20055;-67
2023/06/07 02:13:02;;;;;;;10.48;4.07;;;;;;;22.73;35.28;99680.94;4933773;29;20052;-67
2023/06/07 02:15:31;;;;;;;8.35;3.60;;;;;;;22.67;35.12;99679.16;4947673;29;20170;-68
2023/06/07 02:18:00;;;;;;;12.00;3.72;;;;;;;22.58;35.18;99680.59;4932008;29;20095;-68
2023/06/07 02:20:47;;;;;;;10.00;3.53;;;;;;;22.47;35.14;99682.19;4948492;28;20063;-68
2023/06/07 02:23:15;;;;;;;7.03;3.80;;;;;;;22.72;35.13;99677.44;4972941;28;20272;-68
2023/06/07 02:25:41;;;;;;;13.70;3.42;;;;;;;22.50;34.87;99676.31;4952121;28;20529;-68
2023/06/07 02:28:07;;;;;;;6.72;3.97;;;;;;;22.54;35.07;99682.91;4938439;28;20050;-69
2023/06/07 02:30:34;;;;;;;6.45;3.75;;;;;;;22.58;35.32;99686.00;4940154;28;20113;-68
2023/06/07 02:33:04;;;;;;;9.75;3.83;;;;;;;22.59;35.13;99674.94;4925593;28;20058;-69
2023/06/07 02:35:32;;;;;;;9.18;3.65;;;;;;;22.96;35.19;99691.75;4940788;28;20498;-69
2023/06/07 02:37:58;;;;;;;8.23;3.55;;;;;;;22.66;34.70;99685.66;4956403;28;20066;-67
2023/06/07 02:40:24;;;;;;;8.35;4.20;;;;;;;22.65;34.75;99673.19;4940577;28;20058;-68
2023/06/07 02:42:50;;;;;;;5.47;3.60;;;;;;;22.73;34.90;99679.06;4940321;28;20154;-67
2023/06/07 02:45:17;;;;;;;5.15;3.40;;;;;;;22.73;34.81;99676.34;4956087;28;20046;-68
2023/06/07 02:47:45;;;;;;;11.63;3.90;;;;;;;22.82;34.90;99683.06;4969017;28;20415;-68
2023/06/07 02:50:12;;;;;;;7.93;3.60;;;;;;;22.87;35.06;99687.78;4921093;29;20055;-67
2023/06/07 02:52:38;;;;;;;8.00;3.30;;;;;;;22.87;34.80;99687.78;4953369;28;20065;-67
2023/06/07 02:55:11;;;;;;;8.23;3.80;;;;;;;22.85;34.92;99682.59;4953256;29;20067;-67
2023/06/07 02:57:37;;;;;;;10.85;3.65;;;;;;;22.95;34.84;99685.53;4970385;28;20066;-67
2023/06/07 03:00:11;;;;;;;12.73;4.10;;;;;;;23.01;34.59;99684.59;4972100;28;20113;-70
2023/06/07 03:02:58;;;;;;;13.05;3.60;;;;;;;23.04;34.94;99689.53;4959515;28;20065;-65
2023/06/07 03:05:28;;;;;;;7.47;3.50;;;;;;;23.07;35.06;99680.94;4972049;28;20062;-65
2023/06/07 03:08:00;;;;;;;12.20;3.65;;;;;;;23.04;34.47;99688.69;4956058;28;20042;-65
2023/06/07 03:10:26;;;;;;;12.23;4.35;;;;;;;23.08;35.53;99677.16;4939670;28;20054;-65
2023/06/07 03:12:53;;;;;;;9.02;3.72;;;;;;;23.16;34.80;99675.97;4955754;28;20074;-65
2023/06/07 03:15:19;;;;;;;10.48;3.78;;;;;;;23.13;34.45;99679.97;4924092;28;20043;-65
2023/06/07 03:17:46;;;;;;;9.35;3.75;;;;;;;23.09;34.55;99673.38;4939846;28;20121;-65
2023/06/07 03:20:13;;;;;;;8.18;3.47;;;;;;;23.14;34.61;99673.50;4939992;28;20039;-65
2023/06/07 03:22:44;;;;;;;11.27;4.00;;;;;;;23.27;34.81;99669.75;4955749;28;20070;-71
2023/06/07 03:25:13;;;;;;;9.05;3.70;;;;;;;23.46;34.78;99664.97;5004679;28;20052;-70
2023/06/07 03:27:42;;;;;;;11.93;3.90;;;;;;;23.47;34.76;99677.47;5035051;28;20041;-65
2023/06/07 03:30:20;;;;;;;12.25;4.35;;;;;;;23.35;35.46;99693.75;5051184;28;20061;-65
2023/06/07 03:32:47;;;;;;;10.88;4.35;;;;;;;23.31;36.35;99681.72;5018201;28;20531;-64
2023/06/07 03:35:14;;;;;;;10.63;4.35;;;;;;;23.25;36.03;99683.53;5000692;28;20080;-64
2023/06/07 03:37:42;;;;;;;11.23;4.10;;;;;;;23.33;36.03;99695.88;5020468;28;20056;-66
2023/06/07 03:40:10;;;;;;;10.35;4.18;;;;;;;23.31;36.33;99680.94;5030821;28;20115;-64
2023/06/07 03:42:36;;;;;;;17.13;5.43;;;;;;;23.36;36.47;99681.84;5013793;28;20059;-63
2023/06/07 03:45:04;;;;;;;12.88;4.30;;;;;;;23.59;36.33;99680.97;4997459;28;20057;-64
2023/06/07 03:47:32;;;;;;;10.18;3.50;;;;;;;23.48;36.07;99688.06;4997831;28;20072;-64
2023/06/07 03:49:59;;;;;;;12.15;4.40;;;;;;;23.51;36.28;99690.28;5013587;28;20481;-65
2023/06/07 03:52:24;;;;;;;7.88;3.65;;;;;;;23.52;36.16;99688.41;4997302;28;20124;-64
2023/06/07 03:54:51;;;;;;;16.92;5.32;;;;;;;23.69;36.28;99687.44;4997251;28;20057;-65
2023/06/07 03:57:18;;;;;;;16.02;4.65;;;;;;;23.76;36.14;99687.25;4981082;28;20107;-65
2023/06/07 03:59:44;;;;;;;19.17;4.22;;;;;;;23.84;35.64;99689.59;5013796;28;20057;-65
2023/06/07 04:02:10;;;;;;;16.30;4.88;;;;;;;23.87;35.68;99686.41;5011702;28;20474;-64
2023/06/07 04:04:36;;;;;;;7.32;3.55;;;;;;;24.03;35.08;99700.03;4977734;28;20034;-64
2023/06/07 04:07:04;;;;;;;6.82;3.30;;;;;;;24.17;35.49;99687.00;5010410;28;20394;-65
2023/06/07 04:09:31;;;;;;;12.07;4.20;;;;;;;24.48;35.21;99691.88;4993499;28;20045;-64
2023/06/07 04:11:58;;;;;;;7.53;3.95;;;;;;;24.40;34.96;99693.09;5029258;28;20098;-64
2023/06/07 04:14:27;;;;;;;10.85;4.80;;;;;;;24.50;35.01;99698.72;5019590;28;20044;-64
2023/06/07 04:16:54;;;;;;;9.23;3.20;;;;;;;24.65;34.67;99696.28;5035732;28;20044;-64
2023/06/07 04:19:19;;;;;;;9.38;3.00;;;;;;;24.69;34.54;99683.81;5037487;28;20493;-65
2023/06/07 04:21:46;;;;;;;9.43;3.17;;;;;;;24.95;34.69;99698.63;5054380;28;20564;-64
2023/06/07 04:24:14;;;;;;;9.18;3.45;;;;;;;24.86;33.78;99700.13;5054581;28;20057;-65
2023/06/07 04:26:40;;;;;;;8.70;3.33;;;;;;;24.99;33.65;99697.06;5037376;28;20484;-64
2023/06/07 04:29:07;;;;;;;7.20;3.65;;;;;;;25.06;33.91;99707.75;5037453;28;20040;-64
2023/06/07 04:31:39;;;;;;;13.27;4.00;;;;;;;25.20;34.14;99698.97;5037860;28;20434;-64
2023/06/07 04:34:09;;;;;;;14.32;3.80;;;;;;;25.33;33.20;99706.00;5039823;28;20472;-65
2023/06/07 04:36:37;;;;;;;11.15;4.32;;;;;;;25.45;33.08;99704.00;5041955;28;20555;-64
2023/06/07 04:39:09;;;;;;;;;;;;;;;26.09;32.36;99703.94;5059180;28;20044;-64
2023/06/07 04:41:36;;;;;;;14.38;3.95;;;;;;;25.63;32.55;99695.50;5041602;28;20019;-64
2023/06/07 04:44:06;;;;;;;9.93;4.05;;;;;;;25.73;32.10;99696.44;5057803;28;20056;-64
2023/06/07 04:46:39;;;;;;;6.05;3.30;;;;;;;25.93;31.99;99687.69;5042072;28;20430;-64
2023/06/07 04:49:07;;;;;;;10.25;3.17;;;;;;;25.83;31.81;99688.38;5042017;28;20094;-65
2023/06/07 04:51:35;;;;;;;8.18;2.80;;;;;;;25.99;31.15;99684.78;5041490;28;20131;-65
2023/06/07 04:54:04;;;;;;;8.90;3.13;;;;;;;26.08;31.20;99690.59;5025021;28;20123;-64
2023/06/07 04:56:36;;;;;;;10.75;3.00;;;;;;;26.25;30.95;99683.13;5073456;28;20040;-64
2023/06/07 04:59:03;;;;;;;7.70;2.80;;;;;;;26.33;30.33;99691.66;5024656;28;20084;-64
2023/06/07 05:01:35;;;;;;;6.82;2.42;;;;;;;26.62;30.78;99685.91;5041772;28;20460;-64
2023/06/07 05:04:02;;;;;;;6.20;2.50;;;;;;;26.80;30.62;99691.78;5057645;28;20068;-65
2023/06/07 05:06:37;;;;;;;6.35;2.20;;;;;;;26.66;30.28;99690.63;5040722;28;20044;-64
2023/06/07 05:09:05;;;;;;;11.02;2.30;;;;;;;26.93;29.46;99690.53;5024456;28;20499;-65
2023/06/07 05:11:33;;;;;;;9.45;2.80;;;;;;;27.03;28.96;99685.16;5032919;28;20578;-64
2023/06/07 05:13:59;;;;;;;6.97;2.38;;;;;;;27.14;28.51;99686.84;4983971;28;20057;-65
2023/06/07 05:16:25;;;;;;;7.85;2.40;;;;;;;27.04;28.51;99690.34;5016403;28;20195;-64
2023/06/07 05:18:53;;;;;;;4.28;2.00;;;;;;;27.25;28.57;99683.94;4983965;28;20106;-64
2023/06/07 05:21:21;;;;;;;8.80;2.78;;;;;;;27.37;28.98;99692.72;4984435;28;20053;-64
2023/06/07 05:23:47;;;;;;;14.27;2.97;;;;;;;27.40;28.54;99694.13;4983902;28;20057;-65
2023/06/07 05:26:14;;;;;;;7.03;2.55;;;;;;;27.04;28.75;99686.78;4999640;28;20060;-64
2023/06/07 05:28:42;;;;;;;4.40;1.60;;;;;;;27.26;28.00;99691.03;4958141;28;20070;-65
2023/06/07 05:31:15;;;;;;;8.43;3.47;;;;;;;27.63;28.30;99690.94;4941640;28;20054;-65
2023/06/07 05:33:43;;;;;;;11.05;2.78;;;;;;;27.84;28.58;99684.44;4938674;29;20085;-65
2023/06/07 05:36:10;;;;;;;4.65;2.42;;;;;;;27.68;27.84;99678.13;4938746;29;20520;-65
2023/06/07 05:38:37;;;;;;;8.88;2.78;;;;;;;27.87;27.48;99684.78;4938810;29;20083;-64
2023/06/07 05:41:03;;;;;;;3.75;2.13;;;;;;;28.04;27.44;99687.25;4938674;29;20461;-64
2023/06/07 05:43:28;;;;;;;4.15;1.55;;;;;;;27.90;26.26;99686.13;4958962;28;20061;-64
2023/06/07 05:45:54;;;;;;;5.22;1.98;;;;;;;28.13;25.48;99685.63;4960021;28;20046;-64
2023/06/07 05:48:21;;;;;;;9.65;2.75;;;;;;;28.29;25.59;99675.56;4976977;28;20061;-64
2023/06/07 05:50:47;;;;;;;6.30;2.10;;;;;;;28.46;25.38;99685.09;4960990;28;20038;-64
2023/06/07 05:53:14;;;;;;;4.03;1.70;;;;;;;28.41;25.25;99676.94;4960673;28;20065;-64
2023/06/07 05:55:40;;;;;;;9.00;2.15;;;;;;;28.73;25.40;99674.75;4961003;28;20038;-65
2023/06/07 05:58:06;;;;;;;5.90;2.10;;;;;;;28.77;25.37;99670.38;4976855;28;20049;-65
2023/06/07 06:00:32;;;;;;;4.38;2.00;;;;;;;28.62;25.23;99662.19;5011027;28;20496;-64
2023/06/07 06:03:01;;;;;;;5.32;2.20;;;;;;;28.90;25.09;99671.72;5048496;28;20064;-65
2023/06/07 06:05:27;;;;;;;3.45;1.83;;;;;;;28.87;25.31;99675.00;5032078;28;20096;-65
2023/06/07 06:07:55;;;;;;;2.65;2.10;;;;;;;28.84;25.78;99672.81;5035275;28;20075;-65
2023/06/07 06:10:22;;;;;;;8.98;2.45;;;;;;;28.85;26.07;99669.00;5035801;28;20040;-65
2023/06/07 06:12:48;;;;;;;4.00;2.22;;;;;;;28.83;25.46;99679.41;5019033;28;20144;-65
2023/06/07 06:15:15;;;;;;;3.33;1.92;;;;;;;28.58;25.88;99682.97;5035354;28;20069;-65
2023/06/07 06:17:41;;;;;;;5.72;1.92;;;;;;;28.78;25.33;99676.66;5020372;28;20033;-65
2023/06/07 06:20:09;;;;;;;3.55;1.98;;;;;;;28.98;25.77;99676.63;4997675;28;20030;-65
2023/06/07 06:22:34;;;;;;;5.50;2.10;;;;;;;28.86;25.21;99676.91;4981925;28;20056;-65
2023/06/07 06:25:01;;;;;;;3.85;2.20;;;;;;;29.14;25.04;99679.09;5013956;28;20053;-65
2023/06/07 06:27:26;;;;;;;3.97;1.90;;;;;;;28.77;24.99;99664.91;4981871;28;20065;-65
2023/06/07 06:29:52;;;;;;;7.63;2.30;;;;;;;28.98;24.80;99677.47;4997868;28;20076;-65
2023/06/07 06:32:18;;;;;;;6.20;2.33;;;;;;;29.19;24.84;99679.06;5014689;28;20080;-65
2023/06/07 06:34:48;;;;;;;3.92;2.30;;;;;;;29.59;24.16;99662.50;5013915;28;20057;-64
2023/06/07 06:37:13;;;;;;;5.13;1.85;;;;;;;29.45;25.00;99660.63;5013849;28;20052;-65
2023/06/07 06:39:42;;;;;;;6.30;2.00;;;;;;;29.28;23.79;99661.00;5002914;28;20072;-66
2023/06/07 06:42:08;;;;;;;6.45;1.90;;;;;;;29.52;24.41;99661.97;5017867;28;20037;-65
2023/06/07 06:45:00;;;;;;;6.05;1.83;;;;;;;30.01;23.78;99661.19;5021441;28;20048;-65
2023/06/07 06:47:26;;;;;;;6.30;2.10;;;;;;;29.72;23.39;99660.28;5034538;28;20411;-65
2023/06/07 06:49:53;;;;;;;5.03;1.83;;;;;;;29.49;23.45;99653.53;5018078;28;20060;-65
2023/06/07 06:52:21;;;;;;;2.97;1.60;;;;;;;29.94;23.11;99652.50;5002445;28;20037;-65
2023/06/07 06:54:47;;;;;;;6.93;2.25;;;;;;;30.22;23.11;99655.31;5002133;28;20037;-65
2023/06/07 06:57:13;;;;;;;3.42;1.70;;;;;;;30.66;23.04;99656.03;5034091;28;20048;-65
2023/06/07 06:59:39;;;;;;;5.63;1.90;;;;;;;31.01;22.56;99660.41;5018297;28;20072;-65
2023/06/07 07:02:05;;;;;;;2.45;1.88;;;;;;;31.46;22.40;99648.13;5001324;28;20041;-65
2023/06/07 07:04:31;;;;;;;3.67;1.80;;;;;;;30.90;22.04;99651.47;5034349;28;20056;-65
2023/06/07 07:06:57;;;;;;;8.05;2.10;;;;;;;31.13;21.79;99658.06;5034313;28;20040;-65
2023/06/07 07:09:23;;;;;;;2.70;1.60;;;;;;;31.02;22.15;99665.59;5001683;28;20045;-65
2023/06/07 07:11:48;;;;;;;3.22;1.92;;;;;;;31.39;22.01;99651.19;5033630;28;20059;-65
2023/06/07 07:14:14;;;;;;;4.50;1.70;;;;;;;31.91;20.87;99650.25;5017226;28;20052;-65
2023/06/07 07:16:40;;;;;;;6.50;1.95;;;;;;;32.43;19.68;99658.25;5017357;28;20048;-66
2023/06/07 07:19:06;;;;;;;5.03;1.67;;;;;;;32.48;19.40;99659.00;5017834;28;20041;-65
2023/06/07 07:21:32;;;;;;;1.67;1.30;;;;;;;32.76;18.98;99656.31;5033905;28;20075;-65
2023/06/07 07:23:58;;;;;;;2.03;1.50;;;;;;;32.25;19.01;99661.81;4984874;28;20458;-65
2023/06/07 07:26:25;;;;;;;3.95;1.60;;;;;;;33.07;18.43;99640.91;5017085;28;20068;-65
2023/06/07 07:28:53;;;;;;;5.43;1.95;;;;;;;33.54;18.56;99651.53;5017904;28;20063;-65
2023/06/07 07:31:19;;;;;;;4.88;1.48;;;;;;;34.50;17.98;99639.97;5051206;28;20048;-65
2023/06/07 07:33:45;;;;;;;4.38;1.75;;;;;;;35.73;16.61;99643.44;5017513;28;20151;-65
2023/06/07 07:36:11;;;;;;;5.70;1.95;;;;;;;36.13;15.92;99633.91;5033489;28;20477;-65
2023/06/07 07:38:37;;;;;;;5.60;1.75;;;;;;;36.74;15.53;99635.47;5051288;28;20068;-65
2023/06/07 07:41:06;;;;;;;3.80;2.17;;;;;;;37.71;14.84;99632.47;5001001;28;20052;-65
2023/06/07 07:43:32;;;;;;;5.95;1.63;;;;;;;37.86;14.25;99642.97;5051048;28;20044;-65
2023/06/07 07:45:58;;;;;;;5.53;1.88;;;;;;;39.11;13.37;99634.13;5006859;28;20079;-66
2023/06/07 07:48:24;;;;;;;2.60;1.40;;;;;;;40.88;12.27;99635.56;5050169;28;20037;-66
2023/06/07 07:50:50;;;;;;;4.93;1.67;;;;;;;42.06;11.14;99633.31;5051057;28;20056;-66
2023/06/07 07:53:16;;;;;;;2.95;1.42;;;;;;;42.52;10.50;99627.50;5050121;28;20067;-66
2023/06/07 07:55:42;;;;;;;1.65;1.45;;;;;;;42.62;10.29;99631.66;5066513;28;20083;-65
2023/06/07 07:58:08;;;;;;;1.98;1.40;;;;;;;44.17;9.92;99626.63;5049658;28;20485;-66
2023/06/07 08:00:34;;;;;;;3.00;1.80;;;;;;;45.69;8.76;99633.34;5050084;28;20428;-66
2023/06/07 08:03:03;;;;;;;3.72;1.70;;;;;;;44.70;9.24;99628.88;5050613;28;20051;-66
2023/06/07 08:05:29;;;;;;;9.45;2.10;;;;;;;44.18;9.37;99622.66;5033918;28;20087;-66
2023/06/07 08:07:54;;;;;;;3.17;1.60;;;;;;;45.42;8.92;99622.75;5016282;28;20099;-65
2023/06/07 08:10:20;;;;;;;4.60;1.65;;;;;;;47.36;7.96;99609.00;5049814;28;20044;-66
2023/06/07 08:12:46;;;;;;;3.55;1.50;;;;;;;46.76;7.88;99608.16;5049079;28;20041;-66
2023/06/07 08:15:12;;;;;;;3.97;1.60;;;;;;;48.01;7.52;99611.28;5049233;28;20041;-66
2023/06/07 08:17:39;;;;;;;6.40;1.63;;;;;;;47.98;7.16;99622.59;5066166;28;20044;-65
2023/06/07 08:20:08;;;;;;;7.03;1.63;;;;;;;48.52;6.55;99625.53;5065990;28;20433;-66
2023/06/07 08:22:34;;;;;;;2.05;1.45;;;;;;;47.53;6.60;99610.97;5017720;28;20056;-66
2023/06/07 08:25:00;;;;;;;2.38;1.33;;;;;;;48.86;6.60;99606.81;5066066;28;20067;-65
2023/06/07 08:27:26;;;;;;;5.40;1.63;;;;;;;48.91;6.16;99606.38;5032976;28;20041;-66
2023/06/07 08:29:51;;;;;;;15.23;1.98;;;;;;;47.53;7.17;99613.00;5049864;28;20128;-65
2023/06/07 08:32:17;;;;;;;4.28;1.50;;;;;;;47.08;7.57;99602.56;5032807;28;20136;-66
2023/06/07 08:34:43;;;;;;;5.35;1.75;;;;;;;44.90;7.86;99603.44;5049309;28;20051;-66
2023/06/07 08:37:09;;;;;;;5.63;1.40;;;;;;;43.89;8.59;99593.47;5032823;28;20484;-66
2023/06/07 08:39:35;;;;;;;5.18;1.58;;;;;;;43.14;8.96;99579.56;5016797;28;20041;-65
2023/06/07 08:42:01;;;;;;;5.50;1.23;;;;;;;42.68;8.90;99591.88;5016471;28;20076;-66
2023/06/07 08:44:27;;;;;;;5.60;1.48;;;;;;;39.09;11.48;99577.28;5049741;28;20129;-65
2023/06/07 08:46:54;;;;;;;2.47;1.90;;;;;;;37.06;12.95;99580.31;5033075;28;20041;-65
2023/06/07 08:49:20;;;;;;;3.10;2.05;;;;;;;38.77;12.42;99580.94;5033115;28;20073;-65
2023/06/07 08:51:46;;;;;;;3.20;1.60;;;;;;;38.97;12.18;99569.72;5049525;28;20131;-65
2023/06/07 08:54:16;;;;;;;4.43;2.10;;;;;;;39.13;12.35;99572.66;5050380;28;20183;-65
2023/06/07 08:56:42;;;;;;;3.17;1.80;;;;;;;41.12;10.84;99580.47;5049112;28;20126;-65
2023/06/07 08:59:08;;;;;;;5.97;1.95;;;;;;;42.92;9.75;99574.75;5016282;28;20044;-65
2023/06/07 09:01:34;;;;;;;2.42;1.60;;;;;;;44.88;8.51;99575.00;5016431;28;20102;-66
2023/06/07 09:04:00;;;;;;;4.43;1.60;;;;;;;44.12;8.63;99573.75;5033064;28;20044;-65
2023/06/07 09:06:27;;;;;;;6.28;1.63;;;;;;;42.46;9.11;99558.31;5032579;28;20055;-65
2023/06/07 09:08:54;;;;;;;3.85;1.92;;;;;;;42.07;9.84;99560.38;5049472;28;20128;-65
2023/06/07 09:11:20;;;;;;;4.03;1.63;;;;;;;42.12;9.48;99553.69;5032879;28;20063;-65
2023/06/07 09:13:46;;;;;;;4.68;1.50;;;;;;;41.84;9.94;99553.06;5032427;28;20341;-65
2023/06/07 09:16:13;;;;;;;6.05;1.58;;;;;;;39.39;10.84;99561.97;5050167;28;20447;-65
2023/06/07 09:18:47;;;;;;;8.80;2.00;;;;;;;37.86;13.12;99545.13;5028205;28;20107;-65
2023/06/07 09:21:26;;;;;;;7.43;1.83;;;;;;;36.71;13.23;99544.75;5013556;28;20089;-65
2023/06/07 09:23:54;;;;;;;5.60;2.20;;;;;;;38.57;12.65;99544.56;4982939;28;20092;-65
2023/06/07 09:26:23;;;;;;;4.40;1.55;;;;;;;41.14;10.84;99550.28;5015221;28;20099;-65
2023/06/07 09:28:50;;;;;;;4.82;1.73;;;;;;;41.56;10.38;99548.50;5015579;28;20049;-66
2023/06/07 09:31:34;;;;;;;6.68;1.48;;;;;;;42.68;9.97;99547.19;4982569;28;20132;-66
2023/06/07 09:34:24;;;;;;;4.75;1.70;;;;;;;41.69;9.86;99547.19;4982684;28;20536;-65
2023/06/07 09:36:58;;;;;;;3.85;1.60;;;;;;;40.13;11.13;99540.78;5015783;28;20041;-65
2023/06/07 09:39:26;;;;;;;3.85;1.60;;;;;;;36.39;13.14;99546.19;4999338;28;20200;-65
2023/06/07 09:41:55;;;;;;;2.72;1.75;;;;;;;37.41;13.17;99519.19;5014843;28;20045;-65
2023/06/07 09:44:27;;;;;;;2.10;1.55;;;;;;;40.54;11.07;99542.34;4999167;28;20057;-65
2023/06/07 09:46:55;;;;;;;4.45;1.75;;;;;;;43.15;9.71;99538.41;4998222;28;20041;-65
2023/06/07 09:49:31;;;;;;;7.85;1.77;;;;;;;45.18;8.02;99536.41;5013865;28;20074;-67
2023/06/07 09:51:56;;;;;;;6.40;1.90;;;;;;;45.32;7.90;99542.13;5039242;28;20044;-66
2023/06/07 09:54:52;;;;;;;3.88;1.67;;;;;;;44.91;7.78;99548.97;5039129;28;20051;-66
2023/06/07 09:57:26;;;;;;;7.88;1.92;;;;;;;45.70;7.61;99522.66;4975447;28;20434;-66
2023/06/07 10:00:00;;;;;;;9.93;1.77;;;;;;;44.89;7.95;99523.34;4991984;28;20537;-66
2023/06/07 10:02:29;;;;;;;3.75;1.73;;;;;;;43.02;8.73;99523.00;4975721;28;20050;-66
2023/06/07 10:04:56;;;;;;;3.75;1.90;;;;;;;43.86;8.56;99527.03;4975942;28;20133;-66
2023/06/07 10:07:23;;;;;;;2.15;1.50;;;;;;;41.11;9.70;99503.63;4975570;28;20085;-66
2023/06/07 10:09:53;;;;;;;2.13;1.65;;;;;;;43.30;9.18;99508.66;4991857;28;20566;-67
2023/06/07 10:12:22;;;;;;;6.88;1.67;;;;;;;43.64;8.52;99511.16;4959102;28;20042;-66
2023/06/07 10:14:48;;;;;;;4.72;1.90;;;;;;;39.40;10.63;99542.16;5020058;28;20098;-66
2023/06/07 10:17:14;;;;;;;9.10;2.00;;;;;;;39.16;11.87;99492.19;5054640;28;20503;-65
2023/06/07 10:19:43;;;;;;;5.55;1.85;;;;;;;40.25;10.71;99499.00;5038290;28;20063;-69
2023/06/07 10:22:20;;;;;;;5.40;2.00;;;;;;;41.56;10.44;99498.28;5038199;28;20036;-69
2023/06/07 10:25:08;;;;;;;3.47;1.70;;;;;;;40.02;10.50;99508.28;5022064;28;20380;-69
2023/06/07 10:27:38;;;;;;;4.50;1.52;;;;;;;38.11;12.17;99481.06;5038256;28;20093;-69
2023/06/07 10:30:06;;;;;;;;;;;;;;;37.08;13.22;99486.63;5071057;28;20127;-70
2023/06/07 10:32:38;;;;;;;3.85;1.48;;;;;;;36.32;13.65;99493.31;5037265;28;19924;-69
2023/06/07 10:35:09;;;;;;;3.80;1.73;;;;;;;36.20;13.84;99467.47;5011932;28;20064;-69
2023/06/07 10:37:40;;;;;;;5.72;2.05;;;;;;;38.34;13.16;99489.78;4962905;28;20061;-69
2023/06/07 10:40:10;;;;;;;6.53;1.85;;;;;;;38.80;12.07;99489.41;4995022;28;20060;-69
2023/06/07 10:42:37;;;;;;;4.43;1.80;;;;;;;37.73;12.54;99480.47;4948078;28;20041;-69
2023/06/07 10:45:04;;;;;;;3.90;1.77;;;;;;;38.13;12.49;99487.09;4980264;28;20144;-69
2023/06/07 10:47:31;;;;;;;8.15;2.03;;;;;;;39.32;11.55;99475.59;4980499;28;20041;-69
2023/06/07 10:49:57;;;;;;;6.82;1.65;;;;;;;39.43;11.49;99476.72;4997350;28;20049;-69
2023/06/07 10:52:26;;;;;;;4.30;1.90;;;;;;;41.23;10.45;99480.38;5014171;28;20045;-69
2023/06/07 10:54:53;;;;;;;5.70;2.08;;;;;;;41.30;9.85;99475.75;4997832;28;20079;-69
2023/06/07 10:57:32;;;;;;;5.80;1.60;;;;;;;41.00;10.10;99469.09;4997208;28;20076;-70
2023/06/07 11:00:30;;;;;;;7.88;1.55;;;;;;;40.18;10.19;99467.38;4997323;28;20057;-69
2023/06/07 11:03:10;;;;;;;3.08;1.60;;;;;;;39.29;11.03;99459.63;4998432;28;20060;-69
2023/06/07 11:05:57;;;;;;;4.22;1.95;;;;;;;38.72;11.45;99449.47;5009414;28;20056;-69
2023/06/07 11:08:31;;;;;;;9.25;1.85;;;;;;;37.90;12.04;99446.19;5071266;28;20032;-69
2023/06/07 11:11:01;;;;;;;7.10;1.63;;;;;;;37.01;12.99;99438.47;5021231;28;20083;-69
2023/06/07 11:14:14;;;;;;;6.60;2.10;;;;;;;36.38;13.24;99414.50;5052686;28;20048;-68
2023/06/07 11:16:41;;;;;;;5.13;1.80;;;;;;;34.08;14.22;99434.47;4974158;28;20488;-69
2023/06/07 11:19:11;;;;;;;7.88;2.30;;;;;;;34.62;14.96;99446.22;5017149;28;20485;-69
2023/06/07 11:21:55;;;;;;;5.05;2.17;;;;;;;34.51;15.09;99437.44;5027787;28;20041;-69
2023/06/07 11:24:22;;;;;;;6.75;2.03;;;;;;;34.86;14.70;99430.88;5071415;28;20139;-69
2023/06/07 11:26:50;;;;;;;6.40;1.90;;;;;;;34.42;15.01;99416.47;5036812;28;20841;-69
2023/06/07 11:29:18;;;;;;;5.97;1.80;;;;;;;33.10;15.84;99420.09;5004081;28;20155;-69
2023/06/07 11:31:48;;;;;;;3.13;2.10;;;;;;;33.56;15.66;99421.50;5024604;28;20045;-69
2023/06/07 11:34:16;;;;;;;6.70;1.80;;;;;;;33.07;15.29;99402.28;5054100;28;20732;-69
2023/06/07 11:36:42;;;;;;;5.78;2.05;;;;;;;33.14;15.83;99405.41;5018731;28;20044;-69
2023/06/07 11:39:08;;;;;;;7.70;1.88;;;;;;;33.14;15.88;99407.31;5050274;28;20040;-69
2023/06/07 11:41:35;;;;;;;4.32;2.08;;;;;;;32.75;16.26;99391.44;5033735;28;20127;-68